createdAt,value
2019-01-20T00:02:36.169Z,17.07
2019-01-20T00:05:47.017Z,14.87
2019-01-20T00:08:37.174Z,14.93
2019-01-20T00:14:23.033Z,18.77
2019-01-20T00:17:13.295Z,16.83
2019-01-20T00:19:44.374Z,16.93
2019-01-20T00:22:34.487Z,18.47
2019-01-20T00:25:45.304Z,15.73
2019-01-20T00:28:35.522Z,15.93
2019-01-20T00:31:46.292Z,15.67
2019-01-20T00:34:17.397Z,16.20
2019-01-20T00:37:28.177Z,17.03
2019-01-20T00:43:08.804Z,22.43
2019-01-20T00:45:58.993Z,16.10
2019-01-20T00:48:49.048Z,18.00
2019-01-20T00:51:58.354Z,16.03
2019-01-20T00:54:29.332Z,17.00
2019-01-20T00:57:00.394Z,19.37
2019-01-20T00:59:31.382Z,19.30
2019-01-20T01:08:28.914Z,13.87
2019-01-20T01:10:59.975Z,16.17
2019-01-20T01:13:50.202Z,14.43
2019-01-20T01:16:21.166Z,14.10
2019-01-20T01:19:31.980Z,15.90
2019-01-20T01:22:22.079Z,17.93
2019-01-20T01:25:32.527Z,14.87
2019-01-20T01:28:03.890Z,14.60
2019-01-20T01:30:54.039Z,18.33
2019-01-20T01:33:44.259Z,17.80
2019-01-20T01:36:55.106Z,16.10
2019-01-20T01:39:46.635Z,16.40
2019-01-20T01:45:47.341Z,14.77
2019-01-20T01:48:37.480Z,16.33
2019-01-20T01:51:08.490Z,16.57
2019-01-20T01:53:58.498Z,17.90
2019-01-20T01:56:48.539Z,18.57
2019-01-20T01:59:19.453Z,19.23
2019-01-20T02:01:50.494Z,16.30
2019-01-20T02:04:40.649Z,19.63
2019-01-20T02:07:30.898Z,19.57
2019-01-20T02:10:01.909Z,21.63
2019-01-20T02:13:31.786Z,21.03
2019-01-20T02:16:02.859Z,19.47
2019-01-20T02:18:33.871Z,19.93
2019-01-20T02:21:24.110Z,15.60
2019-01-20T02:24:33.398Z,15.67
2019-01-20T02:27:23.624Z,16.00
2019-01-20T02:29:54.688Z,19.93
2019-01-20T02:32:25.764Z,16.53
2019-01-20T02:34:56.780Z,17.23
2019-01-20T02:37:27.782Z,16.50
2019-01-20T02:39:58.650Z,17.00
2019-01-20T02:42:29.645Z,19.17
2019-01-20T02:45:00.553Z,18.37
2019-01-20T02:47:31.745Z,22.63
2019-01-20T02:50:02.795Z,17.37
2019-01-20T02:52:33.849Z,17.87
2019-01-20T02:55:44.651Z,18.77
2019-01-20T02:58:34.722Z,17.40
2019-01-20T03:01:05.731Z,17.43
2019-01-20T03:03:55.993Z,19.73
2019-01-20T03:06:46.233Z,15.13
2019-01-20T03:09:17.267Z,13.87
2019-01-20T03:11:48.189Z,18.13
2019-01-20T03:14:19.157Z,16.03
2019-01-20T03:16:50.108Z,17.90
2019-01-20T03:19:21.227Z,18.30
2019-01-20T03:21:52.335Z,19.73
2019-01-20T03:24:23.419Z,20.07
2019-01-20T03:26:54.456Z,15.20
2019-01-20T03:29:25.417Z,14.87
2019-01-20T03:31:56.471Z,17.60
2019-01-20T03:34:46.706Z,14.97
2019-01-20T03:37:36.946Z,16.57
2019-01-20T03:40:47.763Z,17.20
2019-01-20T03:43:37.930Z,19.67
2019-01-20T03:46:08.955Z,15.50
2019-01-20T03:48:59.133Z,14.83
2019-01-20T03:51:30.249Z,16.53
2019-01-20T03:54:20.409Z,15.97
2019-01-20T03:57:10.703Z,15.60
2019-01-20T04:00:00.853Z,14.87
2019-01-20T04:06:01.661Z,19.80
2019-01-20T04:08:52.026Z,16.23
2019-01-20T04:11:42.112Z,16.27
2019-01-20T04:14:32.320Z,15.73
2019-01-20T04:17:22.642Z,16.27
2019-01-20T04:20:12.745Z,17.47
2019-01-20T04:23:02.951Z,15.00
2019-01-20T04:25:53.045Z,19.27
2019-01-20T04:28:23.954Z,17.57
2019-01-20T04:30:54.854Z,14.47
2019-01-20T04:33:25.728Z,15.90
2019-01-20T04:35:56.749Z,17.67
2019-01-20T04:38:27.779Z,16.10
2019-01-20T04:41:17.929Z,17.07
2019-01-20T04:44:08.049Z,13.50
2019-01-20T04:46:39.104Z,16.27
2019-01-20T04:49:29.404Z,20.03
2019-01-20T04:55:55.304Z,17.60
2019-01-20T05:01:37.134Z,18.00
2019-01-20T05:04:27.519Z,15.97
2019-01-20T05:10:53.331Z,15.97
2019-01-20T05:13:43.398Z,17.23
2019-01-20T05:16:14.402Z,12.00
2019-01-20T05:19:04.799Z,15.40
2019-01-20T05:21:35.794Z,17.83
2019-01-20T05:24:06.680Z,16.97
2019-01-20T05:26:37.667Z,17.47
2019-01-20T05:29:08.693Z,19.40
2019-01-20T05:31:39.576Z,19.83
2019-01-20T05:34:10.527Z,19.20
2019-01-20T05:39:31.438Z,21.63
2019-01-20T05:42:02.455Z,23.17
2019-01-20T05:44:33.330Z,16.77
2019-01-20T05:47:44.190Z,18.07
2019-01-20T05:50:34.426Z,16.97
2019-01-20T05:53:05.495Z,15.23
2019-01-20T05:55:36.401Z,14.93
2019-01-20T05:58:07.317Z,15.53
2019-01-20T06:00:58.752Z,15.20
2019-01-20T06:03:48.952Z,17.27
2019-01-20T06:06:19.953Z,18.63
2019-01-20T06:08:50.914Z,16.63
2019-01-20T06:14:30.861Z,20.87
2019-01-20T06:17:20.840Z,18.23
2019-01-20T06:19:51.841Z,20.60
2019-01-20T06:25:52.568Z,19.67
2019-01-20T06:28:42.802Z,20.67
2019-01-20T06:31:13.746Z,19.37
2019-01-20T06:34:03.859Z,19.03
2019-01-20T06:36:34.823Z,18.90
2019-01-20T06:39:45.657Z,22.30
2019-01-20T06:42:16.708Z,21.93
2019-01-20T06:44:47.679Z,17.50
2019-01-20T06:51:13.111Z,21.60
2019-01-20T06:54:03.256Z,21.13
2019-01-20T06:56:34.247Z,20.03
2019-01-20T06:59:43.584Z,17.60
2019-01-20T07:02:33.815Z,17.27
2019-01-20T07:05:44.623Z,17.73
2019-01-20T07:08:34.944Z,18.93
2019-01-20T07:11:25.160Z,16.60
2019-01-20T07:13:56.169Z,18.90
2019-01-20T07:16:46.412Z,18.00
2019-01-20T07:19:36.638Z,17.67
2019-01-20T07:24:57.532Z,20.00
2019-01-20T07:27:28.579Z,16.50
2019-01-20T07:29:59.585Z,16.00
2019-01-20T07:32:30.543Z,17.97
2019-01-20T07:35:01.546Z,17.93
2019-01-20T07:37:32.583Z,15.60
2019-01-20T07:43:38.919Z,16.93
2019-01-20T07:46:10.035Z,19.40
2019-01-20T07:48:41.007Z,17.23
2019-01-20T07:51:12.046Z,16.77
2019-01-20T07:53:43.092Z,14.60
2019-01-20T07:56:14.051Z,13.90
2019-01-20T07:58:45.016Z,15.77
2019-01-20T08:01:16.056Z,19.03
2019-01-20T08:03:46.983Z,16.17
2019-01-20T08:06:17.963Z,17.77
2019-01-20T08:08:48.912Z,16.63
2019-01-20T08:11:58.201Z,16.00
2019-01-20T08:14:48.301Z,16.53
2019-01-20T08:17:38.319Z,17.00
2019-01-20T08:20:28.564Z,16.90
2019-01-20T08:22:59.537Z,16.60
2019-01-20T08:25:30.594Z,19.03
2019-01-20T08:28:01.554Z,18.80
2019-01-20T08:30:32.533Z,17.00
2019-01-20T08:33:03.493Z,18.63
2019-01-20T08:35:34.423Z,16.80
2019-01-20T08:38:05.533Z,17.20
2019-01-20T08:40:36.589Z,17.70
2019-01-20T08:43:07.464Z,18.40
2019-01-20T08:46:17.026Z,15.30
2019-01-20T08:48:48.014Z,16.43
2019-01-20T08:51:38.153Z,17.53
2019-01-20T08:54:09.160Z,18.83
2019-01-20T08:56:59.394Z,15.10
2019-01-20T08:59:30.359Z,16.60
2019-01-20T09:02:20.513Z,17.47
2019-01-20T09:04:51.448Z,17.80
2019-01-20T09:07:41.694Z,18.03
2019-01-20T09:10:31.777Z,17.80
2019-01-20T09:16:18.882Z,17.30
2019-01-20T09:19:29.771Z,16.23
2019-01-20T09:22:00.742Z,16.83
2019-01-20T09:24:31.903Z,17.17
2019-01-20T09:27:02.743Z,16.27
2019-01-20T09:29:33.732Z,17.90
2019-01-20T09:32:04.695Z,16.37
2019-01-20T09:34:35.659Z,16.53
2019-01-20T09:37:06.687Z,16.73
2019-01-20T09:39:56.905Z,19.60
2019-01-20T09:42:27.877Z,16.93
2019-01-20T09:51:27.616Z,18.17
2019-01-20T09:53:58.665Z,15.80
2019-01-20T09:56:48.728Z,15.57
2019-01-20T09:59:19.596Z,16.67
2019-01-20T10:01:50.578Z,15.97
2019-01-20T10:04:21.477Z,18.93
2019-01-20T10:07:11.751Z,16.67
2019-01-20T10:10:01.799Z,15.03
2019-01-20T10:12:32.667Z,17.27
2019-01-20T10:21:19.476Z,17.43
2019-01-20T10:23:50.753Z,15.60
2019-01-20T10:27:00.475Z,15.43
2019-01-20T10:30:51.187Z,15.63
2019-01-20T10:33:41.348Z,15.03
2019-01-20T10:36:52.275Z,17.57
2019-01-20T10:40:27.456Z,15.97
2019-01-20T10:46:34.195Z,15.27
2019-01-20T10:49:05.404Z,15.33
2019-01-20T10:51:36.475Z,16.33
2019-01-20T10:55:06.492Z,14.43
2019-01-20T10:57:37.583Z,16.33
2019-01-20T11:03:19.163Z,14.40
2019-01-20T11:05:50.237Z,17.27
2019-01-20T11:08:21.428Z,15.47
2019-01-20T11:10:52.479Z,13.97
2019-01-20T11:13:23.586Z,14.67
2019-01-20T11:15:54.638Z,13.70
2019-01-20T11:18:25.633Z,16.40
2019-01-20T11:20:56.610Z,14.27
2019-01-20T11:29:22.906Z,14.13
2019-01-20T11:35:44.368Z,14.53
2019-01-20T11:38:34.662Z,13.83
2019-01-20T11:41:05.767Z,16.57
2019-01-20T11:43:36.695Z,15.57
2019-01-20T11:46:07.723Z,12.93
2019-01-20T11:48:38.694Z,13.40
2019-01-20T11:51:09.597Z,12.87
2019-01-20T11:53:40.560Z,15.57
2019-01-20T11:56:11.439Z,14.40
2019-01-20T11:59:01.485Z,14.07
2019-01-20T12:02:12.287Z,15.50
2019-01-20T12:04:43.446Z,13.10
2019-01-20T12:07:33.696Z,15.00
2019-01-20T12:10:24.000Z,17.37
2019-01-20T12:16:25.025Z,15.57
2019-01-20T12:18:56.029Z,14.20
2019-01-20T12:21:46.335Z,15.63
2019-01-20T12:24:17.250Z,16.07
2019-01-20T12:27:07.579Z,15.20
2019-01-20T12:29:38.597Z,14.63
2019-01-20T12:32:28.724Z,14.47
2019-01-20T12:34:59.767Z,13.40
2019-01-20T12:37:30.734Z,13.83
2019-01-20T12:40:21.107Z,13.50
2019-01-20T12:42:52.127Z,14.07
2019-01-20T12:45:23.136Z,15.10
2019-01-20T12:47:54.076Z,13.07
2019-01-20T12:53:14.910Z,12.60
2019-01-20T12:55:45.870Z,14.23
2019-01-20T12:58:56.703Z,12.97
2019-01-20T13:01:47.027Z,12.73
2019-01-20T13:04:18.061Z,13.23
2019-01-20T13:06:49.153Z,12.97
2019-01-20T13:09:20.201Z,13.57
2019-01-20T13:12:10.374Z,12.97
2019-01-20T13:14:41.506Z,13.50
2019-01-20T13:17:12.562Z,12.93
2019-01-20T13:19:43.477Z,13.53
2019-01-20T13:22:14.474Z,13.67
2019-01-20T13:25:44.363Z,13.27
2019-01-20T13:28:34.599Z,15.63
2019-01-20T13:31:05.671Z,12.80
2019-01-20T13:33:36.956Z,13.00
2019-01-20T13:36:28.623Z,12.80
2019-01-20T13:39:18.702Z,12.63
2019-01-20T13:41:49.755Z,12.13
2019-01-20T13:44:20.681Z,12.97
2019-01-20T13:46:51.739Z,12.30
2019-01-20T13:49:22.716Z,13.07
2019-01-20T13:51:53.655Z,13.50
2019-01-20T13:54:24.732Z,13.33
2019-01-20T13:56:55.740Z,13.30
2019-01-20T13:59:26.915Z,12.83
2019-01-20T14:01:57.959Z,11.83
2019-01-20T14:04:28.970Z,12.90
2019-01-20T14:06:59.951Z,12.00
2019-01-20T14:09:30.962Z,12.37
2019-01-20T14:12:01.965Z,11.93
2019-01-20T14:14:33.265Z,12.30
2019-01-20T14:17:04.577Z,12.97
2019-01-20T14:20:14.016Z,12.27
2019-01-20T14:23:24.924Z,12.53
2019-01-20T14:25:59.702Z,13.50
2019-01-20T14:31:41.689Z,13.70
2019-01-20T14:34:31.820Z,13.60
2019-01-20T14:37:41.372Z,14.87
2019-01-20T14:40:52.247Z,17.97
2019-01-20T14:43:50.887Z,15.23
2019-01-20T14:46:21.840Z,14.73
2019-01-20T14:49:31.128Z,16.33
2019-01-20T14:54:38.832Z,17.50
2019-01-20T15:00:44.404Z,16.90
2019-01-20T15:03:15.441Z,20.13
2019-01-20T15:05:46.498Z,17.13
2019-01-20T15:08:17.883Z,19.30
2019-01-20T15:10:48.905Z,16.40
2019-01-20T15:13:20.095Z,19.83
2019-01-20T15:15:51.220Z,17.73
2019-01-20T15:18:22.304Z,18.40
2019-01-20T15:20:53.421Z,19.00
2019-01-20T15:23:24.513Z,18.93
2019-01-20T15:25:55.688Z,18.30
2019-01-20T15:28:26.686Z,17.47
2019-01-20T15:30:57.765Z,22.03
2019-01-20T15:33:28.923Z,16.53
2019-01-20T15:36:00.036Z,18.23
2019-01-20T15:38:31.127Z,18.67
2019-01-20T15:41:02.250Z,17.60
2019-01-20T15:43:33.444Z,18.10
2019-01-20T15:46:04.722Z,18.03
2019-01-20T15:48:55.411Z,17.80
2019-01-20T15:52:25.493Z,19.50
2019-01-20T15:55:15.874Z,20.10
2019-01-20T16:00:48.107Z,22.30
2019-01-20T16:03:38.435Z,20.20
2019-01-20T16:06:28.685Z,19.03
2019-01-20T16:09:18.845Z,18.03
2019-01-20T16:15:45.967Z,23.43
2019-01-20T16:18:56.811Z,22.07
2019-01-20T16:22:07.680Z,21.70
2019-01-20T16:24:57.784Z,22.60
2019-01-20T16:32:52.250Z,21.10
2019-01-20T16:35:42.348Z,20.27
2019-01-20T16:38:32.756Z,21.03
2019-01-20T16:41:03.699Z,22.63
2019-01-20T16:43:34.810Z,21.27
2019-01-20T16:46:05.962Z,21.43
2019-01-20T16:48:37.092Z,21.67
2019-01-20T16:51:27.169Z,20.40
2019-01-20T16:54:17.648Z,22.33
2019-01-20T16:57:27.113Z,23.33
2019-01-20T16:59:58.186Z,24.40
2019-01-20T17:02:29.246Z,23.63
2019-01-20T17:05:00.218Z,23.03
2019-01-20T17:07:50.408Z,24.77
2019-01-20T17:11:01.247Z,25.60
2019-01-20T17:13:51.492Z,20.00
2019-01-20T17:16:41.828Z,19.67
2019-01-20T17:19:31.894Z,20.50
2019-01-20T17:22:22.253Z,18.80
2019-01-20T17:25:12.509Z,19.93
2019-01-20T17:28:02.736Z,19.83
2019-01-20T17:31:12.144Z,19.20
2019-01-20T17:33:43.211Z,19.13
2019-01-20T17:36:14.142Z,18.77
2019-01-20T17:38:45.156Z,21.43
2019-01-20T17:41:16.219Z,19.03
2019-01-20T17:43:47.193Z,21.77
2019-01-20T17:46:18.191Z,26.73
2019-01-20T17:48:49.292Z,20.70
2019-01-20T17:51:39.707Z,19.33
2019-01-20T17:54:10.678Z,18.87
2019-01-20T17:57:01.052Z,18.23
2019-01-20T17:59:52.661Z,18.50
2019-01-20T18:03:02.367Z,18.97
2019-01-20T18:05:52.836Z,19.20
2019-01-20T18:08:23.898Z,19.53
2019-01-20T18:10:55.282Z,20.00
2019-01-20T18:16:19.462Z,18.60
2019-01-20T18:18:50.823Z,17.10
2019-01-20T18:21:21.901Z,18.00
2019-01-20T18:23:53.015Z,17.57
2019-01-20T18:26:24.046Z,16.73
2019-01-20T18:32:06.230Z,15.40
2019-01-20T18:35:17.133Z,22.83
2019-01-20T18:41:22.104Z,20.23
2019-01-20T18:49:51.733Z,18.80
2019-01-20T18:52:22.807Z,19.73
2019-01-20T18:54:54.022Z,17.63
2019-01-20T18:57:25.300Z,17.83
2019-01-20T19:00:36.222Z,16.23
2019-01-20T19:03:07.520Z,18.00
2019-01-20T19:08:40.894Z,18.13
2019-01-20T19:15:06.153Z,18.93
2019-01-20T19:17:56.490Z,18.47
2019-01-20T19:21:07.349Z,20.73
2019-01-20T19:27:13.859Z,20.00
2019-01-20T19:32:54.164Z,20.17
2019-01-20T19:36:05.083Z,18.30
2019-01-20T19:38:36.111Z,16.90
2019-01-20T19:41:07.151Z,20.13
2019-01-20T19:43:38.840Z,17.23
2019-01-20T19:46:16.090Z,19.40
2019-01-20T19:49:20.911Z,16.67
2019-01-20T19:51:51.919Z,19.83
2019-01-20T19:54:42.304Z,22.43
2019-01-20T19:57:32.393Z,23.27
2019-01-20T20:00:41.940Z,17.67
2019-01-20T20:09:17.634Z,17.30
2019-01-20T20:12:07.896Z,20.17
2019-01-20T20:14:58.330Z,18.23
2019-01-20T20:18:09.528Z,19.17
2019-01-20T20:20:59.635Z,18.13
2019-01-20T20:23:30.671Z,20.30
2019-01-20T20:26:01.669Z,16.77
2019-01-20T20:28:32.755Z,18.73
2019-01-20T20:31:03.898Z,16.47
2019-01-20T20:33:35.062Z,16.93
2019-01-20T20:36:26.107Z,18.67
2019-01-20T20:39:36.338Z,17.63
2019-01-20T20:42:26.597Z,18.37
2019-01-20T20:48:12.409Z,17.13
2019-01-20T20:51:02.602Z,18.93
2019-01-20T20:53:33.616Z,18.30
2019-01-20T20:56:44.438Z,16.13
2019-01-20T20:59:34.558Z,16.17
2019-01-20T21:05:19.816Z,15.43
2019-01-20T21:07:50.803Z,15.87
2019-01-20T21:10:21.931Z,15.00
2019-01-20T21:12:52.877Z,14.00
2019-01-20T21:15:23.943Z,15.33
2019-01-20T21:17:55.018Z,14.60
2019-01-20T21:20:25.921Z,16.23
2019-01-20T21:22:56.841Z,13.93
2019-01-20T21:25:46.866Z,17.00
2019-01-20T21:28:37.124Z,15.43
2019-01-20T21:31:08.083Z,14.87
2019-01-20T21:33:39.037Z,16.97
2019-01-20T21:36:10.013Z,14.70
2019-01-20T21:39:00.338Z,16.60
2019-01-20T21:41:50.369Z,16.93
2019-01-20T21:44:21.297Z,14.67
2019-01-20T21:47:11.442Z,15.93
2019-01-20T21:50:01.535Z,14.30
2019-01-20T21:52:51.878Z,14.70
2019-01-20T21:55:42.075Z,18.10
2019-01-20T21:58:13.067Z,15.97
2019-01-20T22:00:44.041Z,20.03
2019-01-20T22:03:15.023Z,17.97
2019-01-20T22:05:46.003Z,18.57
2019-01-20T22:08:16.960Z,16.90
2019-01-20T22:11:07.031Z,14.93
2019-01-20T22:13:57.162Z,15.93
2019-01-20T22:16:28.154Z,16.83
2019-01-20T22:19:18.262Z,16.43
2019-01-20T22:22:08.525Z,16.43
2019-01-20T22:24:39.505Z,18.57
2019-01-20T22:27:10.418Z,17.67
2019-01-20T22:29:41.523Z,16.17
2019-01-20T22:32:12.543Z,18.43
2019-01-20T22:34:43.408Z,15.67
2019-01-20T22:37:14.365Z,16.27
2019-01-20T22:39:45.432Z,19.67
2019-01-20T22:42:16.324Z,17.77
2019-01-20T22:44:47.251Z,19.87
2019-01-20T22:47:18.170Z,18.67
2019-01-20T22:49:49.071Z,17.47
2019-01-20T22:52:20.036Z,16.70
2019-01-20T22:55:50.023Z,20.33
2019-01-20T22:58:40.052Z,19.50
2019-01-20T23:01:50.873Z,18.07
2019-01-20T23:04:41.073Z,17.87
2019-01-20T23:07:31.260Z,19.70
2019-01-20T23:10:02.350Z,18.77
2019-01-20T23:12:33.236Z,20.83
2019-01-20T23:15:44.578Z,18.90
2019-01-20T23:18:15.542Z,17.90
2019-01-20T23:21:26.341Z,20.97
2019-01-20T23:23:57.239Z,19.67
2019-01-20T23:26:47.600Z,23.97
2019-01-20T23:29:37.861Z,20.63
2019-01-20T23:32:08.850Z,21.90
2019-01-20T23:34:39.893Z,22.27
2019-01-20T23:37:30.079Z,21.90
2019-01-20T23:40:00.973Z,20.33
2019-01-20T23:42:31.992Z,21.67
2019-01-20T23:45:02.958Z,19.80
2019-01-20T23:47:34.092Z,21.07
2019-01-20T23:50:44.979Z,22.77
2019-01-20T23:53:16.010Z,21.07
2019-01-20T23:56:06.179Z,23.27
2019-01-20T23:58:37.063Z,23.03
